createdAt,value
2022-07-30T00:02:06.375Z,41.27
2022-07-30T00:04:33.528Z,41.34
2022-07-30T00:07:01.089Z,41.47
2022-07-30T00:09:28.483Z,41.76
2022-07-30T00:11:55.574Z,41.61
2022-07-30T00:14:22.672Z,41.49
2022-07-30T00:16:49.868Z,41.52
2022-07-30T00:19:17.037Z,41.55
2022-07-30T00:21:45.643Z,41.42
2022-07-30T00:24:12.859Z,41.84
2022-07-30T00:26:39.909Z,41.37
2022-07-30T00:29:07.260Z,41.49
2022-07-30T00:31:34.369Z,41.38
2022-07-30T00:34:01.457Z,41.54
2022-07-30T00:36:28.607Z,41.71
2022-07-30T00:38:55.933Z,41.66
2022-07-30T00:41:23.638Z,41.47
2022-07-30T00:43:51.078Z,42.05
2022-07-30T00:46:18.317Z,41.95
2022-07-30T00:48:46.358Z,42.03
2022-07-30T00:51:13.574Z,41.66
2022-07-30T00:53:40.814Z,41.70
2022-07-30T00:56:07.984Z,41.84
2022-07-30T00:58:35.231Z,42.04
2022-07-30T01:01:02.388Z,41.65
2022-07-30T01:03:29.472Z,42.11
2022-07-30T01:05:56.780Z,42.17
2022-07-30T01:08:23.744Z,41.86
2022-07-30T01:10:50.955Z,42.15
2022-07-30T01:13:18.287Z,41.91
2022-07-30T01:15:45.281Z,42.37
2022-07-30T01:18:13.771Z,41.67
2022-07-30T01:20:52.308Z,42.08
2022-07-30T01:23:38.313Z,41.92
2022-07-30T01:26:11.003Z,41.89
2022-07-30T01:28:41.777Z,42.27
2022-07-30T01:31:11.128Z,42.18
2022-07-30T01:33:42.444Z,42.54
2022-07-30T01:36:14.393Z,42.50
2022-07-30T01:38:46.503Z,42.25
2022-07-30T01:41:15.507Z,42.51
2022-07-30T01:43:45.465Z,42.30
2022-07-30T01:46:15.085Z,42.42
2022-07-30T01:48:44.316Z,42.63
2022-07-30T01:51:13.397Z,42.31
2022-07-30T01:53:42.985Z,42.50
2022-07-30T01:56:12.876Z,42.68
2022-07-30T01:58:46.817Z,42.41
2022-07-30T02:01:14.132Z,42.81
2022-07-30T02:03:41.772Z,42.58
2022-07-30T02:06:22.002Z,42.85
2022-07-30T02:08:55.322Z,42.66
2022-07-30T02:11:41.474Z,42.98
2022-07-30T02:14:25.170Z,42.63
2022-07-30T02:16:56.583Z,42.75
2022-07-30T02:19:33.125Z,42.86
2022-07-30T02:22:08.620Z,42.72
2022-07-30T02:24:37.927Z,43.11
2022-07-30T02:27:20.098Z,42.94
2022-07-30T02:29:48.901Z,43.17
2022-07-30T02:32:20.441Z,42.83
2022-07-30T02:34:52.001Z,43.25
2022-07-30T02:37:41.625Z,43.24
2022-07-30T02:40:14.931Z,43.02
2022-07-30T02:42:43.794Z,43.10
2022-07-30T02:45:12.685Z,43.12
2022-07-30T02:47:41.057Z,43.02
2022-07-30T02:50:10.828Z,43.30
2022-07-30T02:52:40.484Z,43.48
2022-07-30T02:55:09.757Z,43.32
2022-07-30T02:57:43.251Z,43.28
2022-07-30T03:00:12.027Z,43.35
2022-07-30T03:02:40.701Z,43.63
2022-07-30T03:05:14.022Z,43.32
2022-07-30T03:07:42.242Z,43.38
2022-07-30T03:10:11.283Z,43.53
2022-07-30T03:12:40.682Z,43.51
2022-07-30T03:15:08.352Z,43.77
2022-07-30T03:17:40.435Z,43.38
2022-07-30T03:20:17.681Z,43.76
2022-07-30T03:22:48.238Z,43.59
2022-07-30T03:25:19.703Z,43.78
2022-07-30T03:27:47.475Z,43.66
2022-07-30T03:30:14.693Z,43.48
2022-07-30T03:32:42.884Z,43.90
2022-07-30T03:35:17.223Z,43.87
2022-07-30T03:37:46.183Z,43.54
2022-07-30T03:40:14.356Z,44.00
2022-07-30T03:42:42.071Z,43.79
2022-07-30T03:45:09.719Z,43.88
2022-07-30T03:47:39.529Z,43.85
2022-07-30T03:50:06.842Z,44.25
2022-07-30T03:52:40.842Z,44.01
2022-07-30T03:55:11.300Z,44.11
2022-07-30T03:57:38.994Z,43.95
2022-07-30T04:00:08.677Z,43.92
2022-07-30T04:02:45.849Z,44.00
2022-07-30T04:05:13.899Z,44.32
2022-07-30T04:07:44.822Z,44.29
2022-07-30T04:10:12.988Z,44.05
2022-07-30T04:12:40.016Z,43.96
2022-07-30T04:16:36.999Z,43.98
2022-07-30T04:18:01.440Z,44.35
2022-07-30T04:20:33.081Z,44.29
2022-07-30T04:23:02.119Z,44.07
2022-07-30T04:25:30.611Z,44.33
2022-07-30T04:28:03.340Z,44.38
2022-07-30T04:30:31.363Z,44.34
2022-07-30T04:32:58.337Z,44.09
2022-07-30T04:35:51.256Z,44.40
2022-07-30T04:38:17.487Z,44.14
2022-07-30T04:40:44.476Z,44.48
2022-07-30T04:43:11.515Z,44.22
2022-07-30T04:45:40.361Z,44.32
2022-07-30T04:48:07.803Z,44.55
2022-07-30T04:50:38.844Z,44.29
2022-07-30T04:53:06.034Z,44.60
2022-07-30T04:55:35.751Z,44.60
2022-07-30T04:58:03.418Z,44.47
2022-07-30T05:00:32.814Z,44.58
2022-07-30T05:03:02.448Z,44.46
2022-07-30T05:05:32.441Z,44.35
2022-07-30T05:08:01.284Z,44.75
2022-07-30T05:10:28.324Z,44.62
2022-07-30T05:12:55.322Z,44.72
2022-07-30T05:15:23.272Z,44.64
2022-07-30T05:18:03.842Z,44.87
2022-07-30T05:20:30.702Z,44.72
2022-07-30T05:22:58.289Z,44.73
2022-07-30T05:25:25.182Z,44.78
2022-07-30T05:27:52.687Z,44.94
2022-07-30T05:30:19.793Z,44.74
2022-07-30T05:32:54.938Z,45.09
2022-07-30T05:35:23.367Z,45.01
2022-07-30T05:37:50.362Z,44.73
2022-07-30T05:40:17.366Z,45.04
2022-07-30T05:42:44.322Z,44.96
2022-07-30T05:45:11.350Z,45.22
2022-07-30T05:47:38.267Z,45.27
2022-07-30T05:50:05.713Z,45.26
2022-07-30T05:52:33.669Z,44.95
2022-07-30T05:55:00.660Z,45.15
2022-07-30T05:57:27.518Z,45.09
2022-07-30T05:59:54.546Z,45.12
2022-07-30T06:02:24.512Z,45.51
2022-07-30T06:04:52.048Z,45.56
2022-07-30T06:07:19.124Z,45.48
2022-07-30T06:09:46.169Z,45.69
2022-07-30T06:12:13.098Z,45.31
2022-07-30T06:14:40.214Z,45.41
2022-07-30T06:17:07.214Z,45.72
2022-07-30T06:19:34.206Z,45.79
2022-07-30T06:22:05.993Z,45.74
2022-07-30T06:24:34.331Z,45.83
2022-07-30T06:27:01.927Z,45.58
2022-07-30T06:29:29.141Z,45.53
2022-07-30T06:31:56.116Z,45.51
2022-07-30T06:34:23.310Z,45.66
2022-07-30T06:36:50.447Z,45.59
2022-07-30T06:39:56.861Z,45.85
2022-07-30T06:42:04.791Z,45.96
2022-07-30T06:44:31.828Z,46.08
2022-07-30T06:47:01.854Z,45.75
2022-07-30T06:49:33.116Z,45.83
2022-07-30T06:52:00.460Z,45.84
2022-07-30T06:54:27.557Z,45.66
2022-07-30T06:56:54.745Z,46.18
2022-07-30T06:59:21.781Z,45.95
2022-07-30T07:01:49.452Z,45.90
2022-07-30T07:04:16.738Z,45.76
2022-07-30T07:06:43.696Z,46.12
2022-07-30T07:09:10.648Z,46.01
2022-07-30T07:11:37.650Z,46.01
2022-07-30T07:14:04.991Z,46.07
2022-07-30T07:16:32.157Z,46.25
2022-07-30T07:18:59.091Z,46.33
2022-07-30T07:21:26.017Z,46.26
2022-07-30T07:23:52.995Z,46.32
2022-07-30T07:26:19.870Z,46.08
2022-07-30T07:28:46.858Z,46.33
2022-07-30T07:32:02.768Z,46.46
2022-07-30T07:34:00.789Z,45.98
2022-07-30T07:36:28.493Z,46.32
2022-07-30T07:38:55.512Z,46.21
2022-07-30T07:41:22.388Z,46.19
2022-07-30T07:43:49.319Z,45.85
2022-07-30T07:46:33.911Z,46.49
2022-07-30T07:49:01.909Z,46.10
2022-07-30T07:51:48.223Z,46.34
2022-07-30T07:54:22.299Z,46.18
2022-07-30T07:56:52.702Z,46.12
2022-07-30T07:59:20.129Z,46.51
2022-07-30T08:01:49.856Z,46.22
2022-07-30T08:04:17.854Z,46.43
2022-07-30T08:06:45.015Z,46.45
2022-07-30T08:09:12.082Z,46.51
2022-07-30T08:11:39.348Z,45.90
2022-07-30T08:14:06.314Z,45.96
2022-07-30T08:16:34.510Z,46.33
2022-07-30T08:19:01.768Z,46.34
2022-07-30T08:21:28.657Z,46.54
2022-07-30T08:23:55.678Z,46.27
2022-07-30T08:26:22.486Z,46.40
2022-07-30T08:28:49.719Z,46.10
2022-07-30T08:31:19.819Z,46.18
2022-07-30T08:33:46.789Z,46.09
2022-07-30T08:36:13.743Z,45.93
2022-07-30T08:38:40.770Z,46.20
2022-07-30T08:41:11.489Z,46.24
2022-07-30T08:43:39.613Z,46.21
2022-07-30T08:46:10.353Z,46.01
2022-07-30T08:48:38.067Z,45.92
2022-07-30T08:51:05.420Z,46.17
2022-07-30T08:53:34.100Z,46.17
2022-07-30T08:56:01.859Z,46.31
2022-07-30T08:58:31.859Z,45.94
2022-07-30T09:00:58.779Z,45.98
2022-07-30T09:03:25.860Z,46.66
2022-07-30T09:05:52.874Z,45.78
2022-07-30T09:08:20.030Z,46.34
2022-07-30T09:10:50.656Z,46.02
2022-07-30T09:13:41.784Z,46.28
2022-07-30T09:16:26.136Z,46.40
2022-07-30T09:18:54.305Z,46.37
2022-07-30T09:21:25.242Z,45.96
2022-07-30T09:24:03.824Z,46.35
2022-07-30T09:26:33.266Z,46.20
2022-07-30T09:29:20.274Z,45.96
2022-07-30T09:32:02.086Z,45.53
2022-07-30T09:34:31.241Z,45.97
2022-07-30T09:37:00.689Z,45.57
2022-07-30T09:39:36.518Z,46.06
2022-07-30T09:42:16.687Z,46.09
2022-07-30T09:44:44.355Z,45.76
2022-07-30T09:47:33.208Z,46.07
2022-07-30T09:50:10.199Z,46.13
2022-07-30T09:52:44.283Z,46.25
2022-07-30T09:55:41.870Z,45.66
2022-07-30T09:58:10.332Z,45.99
2022-07-30T10:00:42.323Z,45.92
2022-07-30T10:03:33.521Z,46.24
2022-07-30T10:06:06.338Z,45.56
2022-07-30T10:08:46.621Z,45.85
2022-07-30T10:11:17.441Z,45.36
2022-07-30T10:13:54.728Z,45.37
2022-07-30T10:16:21.933Z,45.86
2022-07-30T10:18:51.288Z,45.81
2022-07-30T10:21:19.818Z,45.64
2022-07-30T10:23:50.525Z,45.71
2022-07-30T10:26:18.322Z,44.98
2022-07-30T10:28:48.054Z,45.00
2022-07-30T10:31:49.412Z,45.58
2022-07-30T10:34:02.825Z,45.46
2022-07-30T10:36:31.282Z,44.98
2022-07-30T10:39:01.075Z,45.60
2022-07-30T10:41:48.234Z,44.94
2022-07-30T10:44:23.144Z,45.14
2022-07-30T10:46:57.628Z,45.23
2022-07-30T10:49:25.905Z,44.96
2022-07-30T10:51:57.483Z,44.62
2022-07-30T10:54:33.709Z,44.66
2022-07-30T10:57:23.017Z,44.46
2022-07-30T11:00:04.083Z,44.43
2022-07-30T11:02:36.700Z,45.20
2022-07-30T11:05:27.315Z,44.32
2022-07-30T11:08:31.795Z,44.55
2022-07-30T11:11:19.590Z,44.94
2022-07-30T11:13:55.101Z,44.96
2022-07-30T11:16:45.916Z,44.25
2022-07-30T11:19:56.876Z,44.78
2022-07-30T11:22:50.876Z,43.97
2022-07-30T11:25:50.669Z,44.08
2022-07-30T11:28:37.915Z,43.91
2022-07-30T11:31:37.164Z,43.96
2022-07-30T11:34:19.508Z,44.60
2022-07-30T11:37:18.459Z,44.49
2022-07-30T11:39:55.614Z,44.45
2022-07-30T11:42:29.863Z,44.21
2022-07-30T11:45:15.449Z,43.82
2022-07-30T11:47:49.123Z,43.91
2022-07-30T11:50:19.121Z,43.54
2022-07-30T11:52:50.580Z,44.29
2022-07-30T11:55:36.359Z,43.24
2022-07-30T11:58:06.889Z,43.98
2022-07-30T12:00:42.644Z,43.32
2022-07-30T12:03:11.588Z,43.60
2022-07-30T12:05:40.223Z,43.07
2022-07-30T12:08:07.340Z,42.90
2022-07-30T12:10:36.158Z,43.03
2022-07-30T12:13:16.795Z,43.38
2022-07-30T12:15:48.608Z,43.71
2022-07-30T12:18:30.062Z,43.01
2022-07-30T12:21:01.276Z,42.96
2022-07-30T12:23:29.647Z,42.81
2022-07-30T12:25:57.560Z,42.68
2022-07-30T12:28:29.417Z,42.61
2022-07-30T12:30:58.324Z,42.46
2022-07-30T12:33:25.437Z,42.84
2022-07-30T12:35:54.887Z,42.97
2022-07-30T12:38:23.261Z,42.70
2022-07-30T12:41:10.510Z,42.77
2022-07-30T12:43:56.380Z,42.34
2022-07-30T12:46:26.893Z,42.11
2022-07-30T12:48:57.940Z,42.96
2022-07-30T12:51:27.215Z,42.92
2022-07-30T12:53:56.736Z,42.28
2022-07-30T12:56:29.265Z,42.94
2022-07-30T12:58:58.541Z,42.84
2022-07-30T13:01:46.021Z,42.07
2022-07-30T13:04:14.439Z,42.43
2022-07-30T13:06:42.453Z,42.70
2022-07-30T13:09:21.978Z,42.27
2022-07-30T13:11:51.197Z,42.43
2022-07-30T13:14:18.113Z,42.12
2022-07-30T13:16:45.628Z,42.02
2022-07-30T13:19:13.255Z,42.23
2022-07-30T13:21:49.768Z,42.38
2022-07-30T13:24:18.499Z,41.66
2022-07-30T13:26:46.053Z,41.58
2022-07-30T13:29:13.681Z,42.29
2022-07-30T13:31:43.113Z,41.69
2022-07-30T13:34:11.989Z,41.58
2022-07-30T13:36:39.321Z,42.28
2022-07-30T13:39:06.431Z,41.67
2022-07-30T13:41:34.399Z,41.20
2022-07-30T13:44:01.355Z,41.67
2022-07-30T13:46:28.343Z,42.02
2022-07-30T13:48:55.448Z,41.06
2022-07-30T13:51:22.438Z,41.32
2022-07-30T13:53:49.419Z,41.09
2022-07-30T13:56:16.899Z,41.43
2022-07-30T13:58:47.923Z,41.19
2022-07-30T14:01:17.731Z,41.45
2022-07-30T14:03:50.602Z,41.51
2022-07-30T14:06:19.262Z,41.28
2022-07-30T14:08:46.570Z,41.18
2022-07-30T14:11:13.881Z,41.50
2022-07-30T14:13:41.013Z,41.70
2022-07-30T14:16:22.975Z,41.74
2022-07-30T14:18:57.407Z,41.56
2022-07-30T14:21:24.940Z,41.24
2022-07-30T14:23:51.914Z,40.73
2022-07-30T14:26:19.235Z,41.03
2022-07-30T14:28:46.261Z,40.89
2022-07-30T14:31:13.258Z,41.35
2022-07-30T14:33:40.237Z,40.92
2022-07-30T14:36:07.267Z,40.92
2022-07-30T14:38:34.265Z,40.90
2022-07-30T14:41:01.217Z,41.22
2022-07-30T14:43:28.089Z,40.57
2022-07-30T14:45:55.066Z,40.06
2022-07-30T14:48:21.909Z,40.47
2022-07-30T14:51:12.881Z,40.75
2022-07-30T14:53:35.881Z,40.89
2022-07-30T14:56:03.105Z,40.70
2022-07-30T14:58:29.968Z,40.01
2022-07-30T15:00:57.118Z,39.88
2022-07-30T15:03:25.872Z,40.19
2022-07-30T15:05:53.043Z,40.23
2022-07-30T15:08:20.392Z,40.03
2022-07-30T15:10:47.543Z,40.37
2022-07-30T15:13:15.505Z,40.29
2022-07-30T15:15:43.375Z,39.79
2022-07-30T15:18:13.916Z,40.03
2022-07-30T15:20:40.928Z,40.28
2022-07-30T15:23:13.086Z,40.32
2022-07-30T15:25:41.522Z,39.82
2022-07-30T15:28:08.721Z,39.86
2022-07-30T15:30:36.430Z,39.52
2022-07-30T15:33:03.363Z,40.31
2022-07-30T15:35:30.275Z,40.44
2022-07-30T15:37:59.403Z,39.95
2022-07-30T15:40:26.421Z,39.90
2022-07-30T15:42:53.632Z,39.57
2022-07-30T15:45:20.555Z,39.85
2022-07-30T15:47:47.562Z,39.66
2022-07-30T15:50:16.704Z,39.94
2022-07-30T15:52:44.575Z,39.36
2022-07-30T15:55:12.349Z,39.26
2022-07-30T15:57:40.497Z,40.11
2022-07-30T16:00:08.817Z,39.66
2022-07-30T16:02:36.911Z,39.71
2022-07-30T16:05:13.222Z,39.82
2022-07-30T16:07:41.085Z,40.00
2022-07-30T16:10:08.441Z,39.57
2022-07-30T16:12:35.482Z,39.63
2022-07-30T16:15:02.468Z,39.35
2022-07-30T16:17:29.423Z,39.22
2022-07-30T16:19:56.374Z,38.99
2022-07-30T16:22:24.213Z,39.24
2022-07-30T16:24:51.761Z,39.64
2022-07-30T16:27:18.820Z,38.78
2022-07-30T16:29:45.716Z,39.70
2022-07-30T16:32:12.789Z,39.59
2022-07-30T16:34:39.757Z,38.95
2022-07-30T16:37:06.698Z,39.02
2022-07-30T16:39:33.577Z,38.80
2022-07-30T16:42:01.092Z,39.26
2022-07-30T16:44:31.603Z,38.86
2022-07-30T16:46:58.683Z,38.84
2022-07-30T16:49:26.295Z,39.12
2022-07-30T16:51:54.159Z,39.32
2022-07-30T16:54:21.517Z,38.93
2022-07-30T16:56:52.690Z,39.10
2022-07-30T16:59:20.515Z,39.27
2022-07-30T17:01:48.479Z,38.52
2022-07-30T17:04:15.695Z,39.14
2022-07-30T17:06:44.384Z,38.55
2022-07-30T17:09:13.192Z,38.94
2022-07-30T17:11:51.883Z,38.58
2022-07-30T17:14:21.337Z,38.62
2022-07-30T17:16:48.331Z,39.01
2022-07-30T17:19:15.214Z,38.96
2022-07-30T17:21:42.169Z,39.28
2022-07-30T17:24:13.561Z,38.46
2022-07-30T17:26:43.461Z,38.92
2022-07-30T17:29:14.705Z,39.23
2022-07-30T17:31:45.957Z,39.02
2022-07-30T17:34:15.187Z,38.76
2022-07-30T17:36:47.023Z,38.99
2022-07-30T17:40:24.701Z,39.21
2022-07-30T17:42:06.330Z,38.87
2022-07-30T17:44:35.332Z,38.68
2022-07-30T17:47:02.266Z,38.68
2022-07-30T17:49:30.244Z,38.14
2022-07-30T17:51:57.592Z,38.17
2022-07-30T17:54:24.689Z,38.13
2022-07-30T17:56:51.722Z,39.14
2022-07-30T17:59:18.635Z,38.70
2022-07-30T18:01:45.762Z,38.19
2022-07-30T18:04:12.597Z,38.94
2022-07-30T18:06:39.645Z,38.37
2022-07-30T18:09:06.820Z,38.22
2022-07-30T18:11:33.725Z,38.96
2022-07-30T18:14:00.599Z,38.71
2022-07-30T18:16:27.494Z,38.06
2022-07-30T18:18:54.588Z,38.55
2022-07-30T18:21:21.478Z,38.39
2022-07-30T18:23:48.439Z,38.70
2022-07-30T18:26:15.511Z,38.21
2022-07-30T18:28:42.480Z,38.79
2022-07-30T18:31:09.649Z,37.88
2022-07-30T18:33:36.606Z,38.14
2022-07-30T18:36:03.818Z,38.54
2022-07-30T18:38:30.679Z,38.13
2022-07-30T18:40:57.814Z,37.90
2022-07-30T18:43:28.362Z,38.18
2022-07-30T18:45:56.657Z,38.74
2022-07-30T18:48:24.639Z,38.72
2022-07-30T18:50:53.014Z,37.90
2022-07-30T18:53:19.910Z,38.51
2022-07-30T18:55:47.065Z,38.06
2022-07-30T18:58:14.003Z,38.37
2022-07-30T19:00:44.078Z,38.43
2022-07-30T19:03:16.380Z,38.38
2022-07-30T19:05:45.221Z,38.72
2022-07-30T19:08:12.125Z,38.78
2022-07-30T19:10:40.017Z,37.76
2022-07-30T19:13:07.361Z,38.08
2022-07-30T19:15:34.350Z,38.67
2022-07-30T19:18:01.559Z,38.37
2022-07-30T19:20:31.547Z,38.56
2022-07-30T19:23:06.957Z,38.51
2022-07-30T19:25:36.164Z,38.32
2022-07-30T19:28:04.573Z,38.34
2022-07-30T19:30:32.558Z,38.47
2022-07-30T19:33:09.166Z,38.49
2022-07-30T19:35:41.824Z,38.32
2022-07-30T19:38:09.904Z,38.49
2022-07-30T19:40:39.601Z,38.12
2022-07-30T19:43:10.126Z,38.07
2022-07-30T19:45:47.291Z,38.49
2022-07-30T19:48:28.658Z,38.78
2022-07-30T19:50:58.253Z,38.39
2022-07-30T19:53:26.645Z,38.24
2022-07-30T19:56:01.343Z,37.89
2022-07-30T19:58:28.383Z,38.45
2022-07-30T20:00:55.385Z,37.90
2022-07-30T20:03:25.987Z,38.39
2022-07-30T20:06:00.178Z,38.18
2022-07-30T20:08:28.474Z,38.08
2022-07-30T20:10:57.803Z,38.12
2022-07-30T20:13:45.327Z,38.80
2022-07-30T20:16:14.910Z,38.02
2022-07-30T20:18:42.940Z,38.87
2022-07-30T20:21:15.067Z,38.62
2022-07-30T20:23:43.201Z,38.89
2022-07-30T20:26:13.897Z,38.45
2022-07-30T20:28:52.429Z,38.71
2022-07-30T20:31:20.011Z,38.95
2022-07-30T20:33:49.510Z,38.83
2022-07-30T20:36:18.237Z,38.43
2022-07-30T20:38:47.042Z,38.56
2022-07-30T20:41:15.035Z,38.39
2022-07-30T20:46:29.290Z,38.26
2022-07-30T20:48:56.360Z,38.27
2022-07-30T20:51:33.780Z,39.08
2022-07-30T20:54:01.200Z,38.72
2022-07-30T20:56:28.733Z,38.43
2022-07-30T20:58:56.974Z,39.09
2022-07-30T21:01:23.979Z,38.31
2022-07-30T21:03:51.018Z,38.21
2022-07-30T21:06:19.392Z,38.33
2022-07-30T21:08:46.344Z,38.55
2022-07-30T21:11:13.377Z,39.06
2022-07-30T21:13:41.953Z,38.42
2022-07-30T21:16:15.923Z,38.96
2022-07-30T21:18:50.086Z,38.91
2022-07-30T21:21:30.843Z,38.69
2022-07-30T21:24:06.424Z,38.86
2022-07-30T21:26:42.447Z,39.17
2022-07-30T21:29:10.003Z,38.74
2022-07-30T21:31:59.084Z,38.93
2022-07-30T21:34:26.139Z,39.18
2022-07-30T21:36:54.422Z,39.40
2022-07-30T21:39:28.927Z,39.14
2022-07-30T21:41:56.956Z,39.43
2022-07-30T21:44:24.342Z,38.89
2022-07-30T21:46:52.388Z,38.67
2022-07-30T21:49:20.592Z,39.42
2022-07-30T21:51:48.038Z,39.33
2022-07-30T21:54:28.614Z,39.11
2022-07-30T21:56:58.305Z,39.06
2022-07-30T21:59:27.605Z,39.33
2022-07-30T22:01:55.643Z,39.42
2022-07-30T22:04:22.833Z,39.01
2022-07-30T22:06:51.432Z,39.03
2022-07-30T22:09:33.426Z,38.87
2022-07-30T22:12:09.196Z,39.13
2022-07-30T22:14:39.426Z,39.49
2022-07-30T22:17:22.345Z,39.14
2022-07-30T22:19:50.232Z,39.11
2022-07-30T22:22:27.680Z,38.86
2022-07-30T22:24:57.306Z,39.48
2022-07-30T22:27:27.015Z,39.39
2022-07-30T22:29:55.832Z,39.79
2022-07-30T22:32:23.995Z,39.21
2022-07-30T22:34:51.719Z,39.17
2022-07-30T22:37:21.537Z,39.41
2022-07-30T22:39:51.435Z,39.32
2022-07-30T22:42:24.261Z,39.55
2022-07-30T22:44:52.638Z,39.42
2022-07-30T22:47:21.478Z,39.87
2022-07-30T22:50:07.999Z,39.70
2022-07-30T22:52:39.432Z,39.52
2022-07-30T22:55:09.077Z,39.50
2022-07-30T22:57:37.755Z,39.47
2022-07-30T23:00:07.306Z,39.42
2022-07-30T23:02:39.737Z,39.96
2022-07-30T23:05:08.471Z,40.03
2022-07-30T23:07:39.686Z,39.36
2022-07-30T23:10:17.206Z,39.55
2022-07-30T23:12:18.423Z,38.70
2022-07-30T23:12:48.750Z,39.96
2022-07-30T23:15:15.924Z,40.02
2022-07-30T23:17:43.708Z,39.22
2022-07-30T23:20:13.930Z,39.49
2022-07-30T23:22:41.183Z,39.99
2022-07-30T23:25:12.959Z,40.31
2022-07-30T23:27:41.136Z,39.75
2022-07-30T23:30:09.583Z,40.27
2022-07-30T23:32:36.960Z,39.70
2022-07-30T23:35:04.990Z,39.95
2022-07-30T23:37:48.620Z,39.81
2022-07-30T23:40:19.879Z,39.93
2022-07-30T23:42:47.827Z,40.15
2022-07-30T23:45:14.873Z,40.07
2022-07-30T23:48:01.688Z,40.31
2022-07-30T23:50:30.061Z,40.12
2022-07-30T23:52:57.072Z,40.30
2022-07-30T23:55:24.039Z,40.29
2022-07-30T23:57:51.159Z,40.00
